Time;durP1;ratioP1;P1;durP2;ratioP2;P2;SDS_P1;SDS_P2;PMS_P1;PMS_P2;Temp;Humidity;BMP_temperature;BMP_pressure;BME280_temperature;BME280_humidity;BME280_pressure;Samples;Min_cycle;Max_cycle;Signal;HPM_P1;HPM_P2
2023/04/19 00:02:15;;;;;;;7.95;4.22;;;;;;;;;;5016933;28;20083;-64
2023/04/19 00:04:40;;;;;;;9.07;3.92;;;;;;;;;;5016306;28;20052;-65
2023/04/19 00:07:06;;;;;;;8.73;4.22;;;;;;;;;;5018416;28;20395;-63
2023/04/19 00:09:31;;;;;;;8.38;4.43;;;;;;;;;;5020027;28;20041;-63
2023/04/19 00:11:56;;;;;;;13.65;4.05;;;;;;;;;;5013137;28;20033;-64
2023/04/19 00:14:22;;;;;;;9.02;4.55;;;;;;;;;;5018566;28;20120;-61
2023/04/19 00:16:47;;;;;;;10.07;4.63;;;;;;;;;;5020738;28;20021;-63
2023/04/19 00:19:12;;;;;;;7.90;4.03;;;;;;;;;;5017586;28;20029;-64
2023/04/19 00:21:37;;;;;;;11.02;4.15;;;;;;;;;;5017016;28;20136;-64
2023/04/19 00:24:03;;;;;;;10.40;4.30;;;;;;;;;;5020158;28;20061;-64
2023/04/19 00:26:28;;;;;;;10.77;4.10;;;;;;;;;;5018504;28;20025;-65
2023/04/19 00:28:53;;;;;;;8.88;4.05;;;;;;;;;;5019043;28;20415;-62
2023/04/19 00:31:18;;;;;;;9.45;4.03;;;;;;;;;;5019650;28;20503;-64
2023/04/19 00:33:44;;;;;;;11.25;4.65;;;;;;;;;;5016251;28;20502;-65
2023/04/19 00:36:09;;;;;;;15.95;5.10;;;;;;;;;;5012815;28;20866;-64
2023/04/19 00:38:35;;;;;;;18.13;5.35;;;;;;;;;;5016403;28;20068;-64
2023/04/19 00:41:00;;;;;;;9.45;4.00;;;;;;;;;;5017877;28;20388;-65
2023/04/19 00:43:25;;;;;;;10.43;4.15;;;;;;;;;;5018643;28;20021;-63
2023/04/19 00:45:50;;;;;;;7.32;4.05;;;;;;;;;;5019829;28;20087;-61
2023/04/19 00:48:16;;;;;;;9.60;3.63;;;;;;;;;;5019439;28;20018;-65
2023/04/19 00:50:43;;;;;;;9.48;4.32;;;;;;;;;;5018037;28;20445;-64
2023/04/19 00:53:09;;;;;;;8.52;3.53;;;;;;;;;;5016100;28;20061;-64
2023/04/19 00:55:34;;;;;;;10.50;5.13;;;;;;;;;;5017735;28;20446;-64
2023/04/19 00:58:00;;;;;;;9.35;4.55;;;;;;;;;;5018360;28;20021;-62
2023/04/19 01:00:25;;;;;;;12.65;4.78;;;;;;;;;;5019514;28;20029;-65
2023/04/19 01:02:50;;;;;;;18.52;4.93;;;;;;;;;;5016653;28;20026;-62
2023/04/19 01:05:15;;;;;;;8.45;4.82;;;;;;;;;;5010859;28;20032;-64
2023/04/19 01:07:41;;;;;;;12.15;4.80;;;;;;;;;;5019535;28;20033;-65
2023/04/19 01:10:07;;;;;;;11.40;5.00;;;;;;;;;;5015065;28;20061;-64
2023/04/19 01:12:32;;;;;;;10.88;4.57;;;;;;;;;;5013468;28;20039;-63
2023/04/19 01:14:57;;;;;;;11.38;4.93;;;;;;;;;;5019103;28;20040;-65
2023/04/19 01:17:23;;;;;;;8.65;4.38;;;;;;;;;;5019851;28;20025;-64
2023/04/19 01:19:48;;;;;;;10.93;4.80;;;;;;;;;;5017201;28;20019;-64
2023/04/19 01:22:20;;;;;;;9.95;4.75;;;;;;;;;;5018675;28;20622;-62
2023/04/19 01:24:45;;;;;;;8.43;4.47;;;;;;;;;;5016989;28;20033;-64
2023/04/19 01:27:12;;;;;;;9.05;4.60;;;;;;;;;;5016622;28;20032;-65
2023/04/19 01:29:38;;;;;;;11.38;5.32;;;;;;;;;;5015159;28;20025;-64
2023/04/19 01:32:03;;;;;;;11.73;5.05;;;;;;;;;;5019461;28;20641;-64
2023/04/19 01:34:28;;;;;;;10.40;4.53;;;;;;;;;;5015847;28;20041;-62
2023/04/19 01:36:53;;;;;;;9.63;4.28;;;;;;;;;;5017280;28;20051;-64
2023/04/19 01:39:19;;;;;;;7.93;4.18;;;;;;;;;;5014092;28;20064;-65
2023/04/19 01:41:44;;;;;;;9.52;4.72;;;;;;;;;;5012332;28;20072;-65
2023/04/19 01:44:10;;;;;;;11.40;4.70;;;;;;;;;;5012464;28;20018;-61
2023/04/19 01:46:37;;;;;;;8.35;4.40;;;;;;;;;;5016633;28;20135;-63
2023/04/19 01:49:03;;;;;;;14.80;4.97;;;;;;;;;;5016616;28;20025;-65
2023/04/19 01:51:28;;;;;;;12.93;4.82;;;;;;;;;;5018786;28;20027;-65
2023/04/19 01:53:53;;;;;;;8.45;4.22;;;;;;;;;;5018319;28;20446;-63
2023/04/19 01:56:20;;;;;;;12.50;5.45;;;;;;;;;;5013858;28;20189;-58
2023/04/19 01:58:45;;;;;;;8.90;4.10;;;;;;;;;;5016891;28;20120;-63
2023/04/19 02:01:11;;;;;;;9.77;5.18;;;;;;;;;;5017582;28;22186;-62
2023/04/19 02:03:37;;;;;;;10.43;5.00;;;;;;;;;;5015581;28;20030;-63
2023/04/19 02:06:02;;;;;;;13.80;5.22;;;;;;;;;;5017238;28;20127;-64
2023/04/19 02:08:28;;;;;;;18.23;5.30;;;;;;;;;;5018666;28;20028;-64
2023/04/19 02:10:53;;;;;;;15.75;6.10;;;;;;;;;;5017319;28;20143;-61
2023/04/19 02:13:18;;;;;;;12.82;6.47;;;;;;;;;;5016738;28;20104;-62
2023/04/19 02:15:43;;;;;;;14.25;6.00;;;;;;;;;;5009770;28;20025;-63
2023/04/19 02:18:10;;;;;;;14.70;6.45;;;;;;;;;;5019606;28;20479;-63
2023/04/19 02:20:35;;;;;;;11.68;5.53;;;;;;;;;;5019767;28;20029;-64
2023/04/19 02:23:01;;;;;;;14.88;6.40;;;;;;;;;;5021437;28;20048;-63
2023/04/19 02:25:26;;;;;;;16.75;6.43;;;;;;;;;;5021375;28;20474;-62
2023/04/19 02:27:52;;;;;;;16.38;5.97;;;;;;;;;;5022217;28;20075;-64
2023/04/19 02:30:17;;;;;;;15.38;6.15;;;;;;;;;;5019760;28;20029;-61
2023/04/19 02:32:43;;;;;;;10.50;4.97;;;;;;;;;;5019404;28;20033;-63
2023/04/19 02:35:08;;;;;;;11.68;6.30;;;;;;;;;;5017212;28;20076;-63
2023/04/19 02:37:33;;;;;;;17.95;7.25;;;;;;;;;;5022099;28;20032;-64
2023/04/19 02:39:58;;;;;;;12.13;6.22;;;;;;;;;;5021256;28;20121;-65
2023/04/19 02:42:23;;;;;;;16.60;6.90;;;;;;;;;;5020588;28;20486;-63
2023/04/19 02:44:49;;;;;;;15.02;5.97;;;;;;;;;;5023913;28;20018;-59
2023/04/19 02:47:14;;;;;;;14.60;6.07;;;;;;;;;;5027124;28;21375;-64
2023/04/19 02:49:40;;;;;;;14.63;5.80;;;;;;;;;;5022146;28;20040;-64
2023/04/19 02:52:05;;;;;;;16.23;6.78;;;;;;;;;;5029296;28;20537;-62
2023/04/19 02:54:32;;;;;;;15.15;6.75;;;;;;;;;;5029827;28;20026;-62
2023/04/19 02:56:57;;;;;;;10.07;5.30;;;;;;;;;;5028905;28;20029;-62
2023/04/19 02:59:23;;;;;;;14.77;6.57;;;;;;;;;;5030115;28;20093;-63
2023/04/19 03:01:48;;;;;;;12.18;6.72;;;;;;;;;;5017694;28;20022;-63
2023/04/19 03:04:13;;;;;;;15.60;6.00;;;;;;;;;;5025043;28;20588;-63
2023/04/19 03:06:38;;;;;;;15.15;6.53;;;;;;;;;;5027287;28;20025;-64
2023/04/19 03:09:03;;;;;;;13.88;6.22;;;;;;;;;;5028997;28;20625;-65
2023/04/19 03:11:29;;;;;;;14.48;6.15;;;;;;;;;;5028589;28;20032;-65
2023/04/19 03:13:54;;;;;;;13.50;5.65;;;;;;;;;;5027613;28;20030;-65
2023/04/19 03:16:20;;;;;;;13.63;6.63;;;;;;;;;;5030798;28;20021;-65
2023/04/19 03:18:48;;;;;;;12.45;6.13;;;;;;;;;;5030272;28;20046;-65
2023/04/19 03:21:13;;;;;;;13.70;6.80;;;;;;;;;;5027533;28;20033;-64
2023/04/19 03:23:38;;;;;;;12.23;5.97;;;;;;;;;;5026887;28;20026;-63
2023/04/19 03:26:03;;;;;;;18.98;5.88;;;;;;;;;;5020840;28;20030;-65
2023/04/19 03:28:29;;;;;;;11.48;6.32;;;;;;;;;;5029096;28;20085;-64
2023/04/19 03:30:54;;;;;;;13.95;5.93;;;;;;;;;;5030178;28;20631;-65
2023/04/19 03:33:19;;;;;;;17.55;5.68;;;;;;;;;;5029725;28;20046;-64
2023/04/19 03:35:45;;;;;;;11.82;5.28;;;;;;;;;;5029840;28;20022;-61
2023/04/19 03:38:10;;;;;;;12.25;5.50;;;;;;;;;;5027698;28;20064;-63
2023/04/19 03:40:36;;;;;;;19.92;5.85;;;;;;;;;;5029993;28;20009;-63
2023/04/19 03:43:01;;;;;;;14.52;5.40;;;;;;;;;;5026510;28;20390;-64
2023/04/19 03:45:26;;;;;;;11.40;5.65;;;;;;;;;;5027879;28;20079;-65
2023/04/19 03:47:51;;;;;;;11.10;5.30;;;;;;;;;;5024043;28;20064;-65
2023/04/19 03:50:17;;;;;;;9.77;4.60;;;;;;;;;;5026205;28;20049;-61
2023/04/19 03:52:42;;;;;;;13.30;5.15;;;;;;;;;;5026923;28;20045;-65
2023/04/19 03:55:08;;;;;;;8.50;4.45;;;;;;;;;;5028895;28;20021;-65
2023/04/19 03:57:33;;;;;;;10.65;4.78;;;;;;;;;;5020532;28;20525;-65
2023/04/19 03:59:58;;;;;;;12.30;4.97;;;;;;;;;;5029928;28;20017;-62
2023/04/19 04:02:24;;;;;;;14.18;5.05;;;;;;;;;;5027943;28;20589;-59
2023/04/19 04:04:53;;;;;;;14.30;4.80;;;;;;;;;;5028731;28;20067;-64
2023/04/19 04:07:18;;;;;;;9.60;4.18;;;;;;;;;;5024693;28;20063;-64
2023/04/19 04:09:46;;;;;;;13.82;4.68;;;;;;;;;;5015830;28;20017;-63
2023/04/19 04:12:12;;;;;;;11.05;4.45;;;;;;;;;;5020519;28;20059;-64
2023/04/19 04:14:37;;;;;;;8.52;3.53;;;;;;;;;;5018126;28;20045;-64
2023/04/19 04:17:02;;;;;;;16.23;4.60;;;;;;;;;;5026079;28;20112;-65
2023/04/19 04:19:27;;;;;;;8.10;3.63;;;;;;;;;;5025588;28;20017;-64
2023/04/19 04:21:53;;;;;;;9.95;4.43;;;;;;;;;;5026414;28;20025;-65
2023/04/19 04:24:19;;;;;;;9.55;4.20;;;;;;;;;;5023745;28;20021;-65
2023/04/19 04:26:44;;;;;;;15.55;4.30;;;;;;;;;;5024795;28;20064;-66
2023/04/19 04:29:09;;;;;;;7.10;3.83;;;;;;;;;;5019768;28;20427;-66
2023/04/19 04:31:35;;;;;;;8.20;3.75;;;;;;;;;;5014976;28;20040;-64
2023/04/19 04:34:00;;;;;;;11.40;3.70;;;;;;;;;;5029888;28;20051;-64
2023/04/19 04:36:28;;;;;;;6.72;3.05;;;;;;;;;;5028383;28;20026;-65
2023/04/19 04:38:54;;;;;;;12.82;4.28;;;;;;;;;;5027004;28;20478;-62
2023/04/19 04:41:19;;;;;;;8.10;3.35;;;;;;;;;;5021809;28;20094;-64
2023/04/19 04:43:48;;;;;;;6.07;3.08;;;;;;;;;;5022597;28;20029;-65
2023/04/19 04:46:16;;;;;;;8.48;3.80;;;;;;;;;;5019094;28;20193;-63
2023/04/19 04:48:41;;;;;;;11.90;3.83;;;;;;;;;;4999717;28;20503;-64
2023/04/19 04:51:06;;;;;;;8.50;3.10;;;;;;;;;;5009931;28;20037;-65
2023/04/19 04:53:31;;;;;;;6.93;2.65;;;;;;;;;;5017950;28;20768;-63
2023/04/19 04:55:57;;;;;;;8.80;3.58;;;;;;;;;;5018367;28;20049;-65
2023/04/19 04:58:22;;;;;;;6.78;2.75;;;;;;;;;;5007177;28;20128;-65
2023/04/19 05:00:47;;;;;;;12.18;2.75;;;;;;;;;;5019154;28;20022;-64
2023/04/19 05:03:13;;;;;;;9.38;2.90;;;;;;;;;;5005272;28;20125;-62
2023/04/19 05:05:38;;;;;;;14.48;3.53;;;;;;;;;;5001137;28;20047;-64
2023/04/19 05:08:04;;;;;;;5.30;2.33;;;;;;;;;;5011576;28;20075;-65
2023/04/19 05:10:29;;;;;;;7.47;2.90;;;;;;;;;;5014350;28;20030;-64
2023/04/19 05:12:54;;;;;;;7.35;2.97;;;;;;;;;;5011976;28;20048;-64
2023/04/19 05:15:20;;;;;;;7.13;2.88;;;;;;;;;;5012241;28;20045;-64
2023/04/19 05:17:45;;;;;;;9.10;2.80;;;;;;;;;;5013662;28;20026;-65
2023/04/19 05:20:11;;;;;;;10.77;3.08;;;;;;;;;;5013406;28;20076;-65
2023/04/19 05:22:36;;;;;;;6.97;2.58;;;;;;;;;;5016505;28;20108;-65
2023/04/19 05:25:02;;;;;;;5.95;2.55;;;;;;;;;;5017376;28;20083;-63
2023/04/19 05:27:27;;;;;;;4.32;2.45;;;;;;;;;;5016547;28;20017;-65
2023/04/19 05:29:52;;;;;;;6.07;2.42;;;;;;;;;;5013121;28;20021;-63
2023/04/19 05:32:17;;;;;;;5.18;2.28;;;;;;;;;;5016730;28;20033;-65
2023/04/19 05:34:43;;;;;;;5.72;2.50;;;;;;;;;;5013167;28;20021;-63
2023/04/19 05:37:08;;;;;;;7.35;2.35;;;;;;;;;;5013597;28;20091;-62
2023/04/19 05:39:33;;;;;;;8.45;2.75;;;;;;;;;;5019811;23;20038;-69
2023/04/19 05:41:59;;;;;;;5.80;1.98;;;;;;;;;;5010322;28;20037;-69
2023/04/19 05:44:24;;;;;;;5.97;2.20;;;;;;;;;;5016154;28;20091;-70
2023/04/19 05:46:49;;;;;;;5.63;2.42;;;;;;;;;;5014375;28;20517;-69
2023/04/19 05:49:14;;;;;;;5.45;2.00;;;;;;;;;;5010362;28;20032;-69
2023/04/19 05:51:40;;;;;;;17.05;2.70;;;;;;;;;;5013447;28;20100;-69
2023/04/19 05:54:05;;;;;;;3.83;1.98;;;;;;;;;;5022508;28;20025;-68
2023/04/19 05:56:30;;;;;;;5.35;2.25;;;;;;;;;;5007642;28;20406;-69
2023/04/19 05:58:55;;;;;;;3.85;2.10;;;;;;;;;;5010405;28;20030;-70
2023/04/19 06:01:21;;;;;;;4.05;2.08;;;;;;;;;;5022707;28;20022;-69
2023/04/19 06:03:51;;;;;;;7.80;2.70;;;;;;;;;;5018581;28;20040;-70
2023/04/19 06:06:17;;;;;;;11.50;2.65;;;;;;;;;;5011488;28;20025;-68
2023/04/19 06:08:42;;;;;;;6.68;2.50;;;;;;;;;;5009558;28;20025;-69
2023/04/19 06:11:07;;;;;;;9.30;3.20;;;;;;;;;;5013275;28;20024;-70
2023/04/19 06:13:32;;;;;;;10.85;2.47;;;;;;;;;;5013115;28;20576;-70
2023/04/19 06:15:57;;;;;;;8.48;2.22;;;;;;;;;;5016100;28;20645;-71
2023/04/19 06:18:23;;;;;;;8.00;2.33;;;;;;;;;;5015510;28;20021;-70
2023/04/19 06:20:48;;;;;;;10.35;2.60;;;;;;;;;;5015189;28;20030;-71
2023/04/19 06:23:17;;;;;;;6.28;2.20;;;;;;;;;;5012589;28;20115;-70
2023/04/19 06:25:42;;;;;;;3.80;1.85;;;;;;;;;;5013784;28;20398;-70
2023/04/19 06:28:08;;;;;;;9.07;1.98;;;;;;;;;;5008008;28;20984;-69
2023/04/19 06:30:33;;;;;;;6.50;2.15;;;;;;;;;;5013036;28;20026;-69
2023/04/19 06:32:58;;;;;;;5.05;2.03;;;;;;;;;;5014932;28;20021;-68
2023/04/19 06:35:24;;;;;;;4.60;2.20;;;;;;;;;;5012959;28;20052;-71
2023/04/19 06:37:49;;;;;;;8.23;1.88;;;;;;;;;;5011961;28;20029;-70
2023/04/19 06:40:14;;;;;;;6.88;2.55;;;;;;;;;;5016046;28;20114;-72
2023/04/19 06:42:40;;;;;;;5.10;1.92;;;;;;;;;;5013022;28;20036;-69
2023/04/19 06:45:05;;;;;;;7.72;2.22;;;;;;;;;;5012575;28;20029;-71
2023/04/19 06:47:30;;;;;;;3.72;1.92;;;;;;;;;;5013621;28;20037;-72
2023/04/19 06:49:56;;;;;;;3.58;2.13;;;;;;;;;;5014696;28;20075;-70
2023/04/19 06:52:21;;;;;;;4.82;1.85;;;;;;;;;;5012867;28;20057;-70
2023/04/19 06:54:50;;;;;;;4.57;2.25;;;;;;;;;;5015041;28;20024;-71
2023/04/19 06:57:15;;;;;;;3.63;1.73;;;;;;;;;;5010220;28;20037;-69
2023/04/19 06:59:41;;;;;;;4.35;1.73;;;;;;;;;;5009939;28;20048;-71
2023/04/19 07:02:06;;;;;;;7.22;1.70;;;;;;;;;;5015471;28;20041;-69
2023/04/19 07:04:32;;;;;;;4.97;1.92;;;;;;;;;;5017032;28;20076;-70
2023/04/19 07:06:57;;;;;;;7.60;2.08;;;;;;;;;;5012688;28;20095;-69
2023/04/19 07:09:22;;;;;;;3.25;2.03;;;;;;;;;;5017972;28;20491;-70
2023/04/19 07:11:49;;;;;;;3.67;1.65;;;;;;;;;;5014361;28;20120;-69
2023/04/19 07:14:15;;;;;;;7.95;1.98;;;;;;;;;;5015215;28;20109;-70
2023/04/19 07:16:40;;;;;;;4.82;2.17;;;;;;;;;;5017881;28;20018;-70
2023/04/19 07:19:05;;;;;;;7.43;1.90;;;;;;;;;;5017762;28;20021;-70
2023/04/19 07:21:32;;;;;;;12.27;3.08;;;;;;;;;;5015101;28;20029;-69
2023/04/19 07:23:57;;;;;;;4.80;2.58;;;;;;;;;;5015541;28;20040;-70
2023/04/19 07:26:23;;;;;;;4.90;2.00;;;;;;;;;;5017610;28;20009;-69
2023/04/19 07:28:49;;;;;;;10.23;2.55;;;;;;;;;;5015581;28;20051;-69
2023/04/19 07:31:15;;;;;;;4.28;1.73;;;;;;;;;;5017259;28;20026;-70
2023/04/19 07:33:40;;;;;;;3.65;1.80;;;;;;;;;;5017265;28;20095;-69
2023/04/19 07:36:06;;;;;;;4.10;1.90;;;;;;;;;;5013947;28;20434;-70
2023/04/19 07:38:31;;;;;;;5.45;2.33;;;;;;;;;;5017973;28;20037;-69
2023/04/19 07:40:56;;;;;;;3.88;1.90;;;;;;;;;;5017695;28;20060;-68
2023/04/19 07:43:22;;;;;;;4.60;1.90;;;;;;;;;;5016173;28;20064;-71
2023/04/19 07:45:47;;;;;;;11.60;2.65;;;;;;;;;;5017624;28;20112;-69
2023/04/19 07:48:12;;;;;;;7.78;2.28;;;;;;;;;;5018559;28;20017;-68
2023/04/19 07:50:37;;;;;;;3.47;1.67;;;;;;;;;;5018442;28;20113;-70
2023/04/19 07:53:03;;;;;;;8.57;2.13;;;;;;;;;;5013408;28;20033;-69
2023/04/19 07:55:28;;;;;;;7.93;2.10;;;;;;;;;;5013958;28;20874;-68
2023/04/19 07:57:53;;;;;;;8.35;2.42;;;;;;;;;;5011269;28;20553;-71
2023/04/19 08:00:20;;;;;;;7.45;2.30;;;;;;;;;;5010012;28;20581;-69
2023/04/19 08:02:46;;;;;;;4.47;2.17;;;;;;;;;;5027023;28;20048;-71
2023/04/19 08:05:12;;;;;;;8.13;2.33;;;;;;;;;;5016248;28;20843;-69
2023/04/19 08:07:37;;;;;;;6.47;2.35;;;;;;;;;;5019845;28;20017;-69
2023/04/19 08:10:03;;;;;;;8.07;2.40;;;;;;;;;;5016062;28;20667;-69
2023/04/19 08:12:29;;;;;;;5.55;2.22;;;;;;;;;;5012864;28;20029;-69
2023/04/19 08:14:54;;;;;;;6.75;2.50;;;;;;;;;;5014901;28;20051;-69
2023/04/19 08:17:20;;;;;;;7.60;2.40;;;;;;;;;;5020602;28;20026;-68
2023/04/19 08:19:46;;;;;;;6.43;2.50;;;;;;;;;;5018599;28;20061;-69
2023/04/19 08:22:11;;;;;;;5.13;2.25;;;;;;;;;;5018084;28;20021;-68
2023/04/19 08:24:36;;;;;;;7.30;2.20;;;;;;;;;;5019551;28;20068;-69
2023/04/19 08:27:02;;;;;;;4.22;2.05;;;;;;;;;;5019187;28;20021;-69
2023/04/19 08:29:27;;;;;;;11.48;2.55;;;;;;;;;;5019466;28;20028;-68
2023/04/19 08:31:52;;;;;;;4.65;2.20;;;;;;;;;;5024093;28;20034;-70
2023/04/19 08:34:18;;;;;;;4.32;1.73;;;;;;;;;;5019431;28;20014;-69
2023/04/19 08:36:44;;;;;;;4.93;1.90;;;;;;;;;;5012875;28;20017;-70
2023/04/19 08:39:11;;;;;;;5.72;2.13;;;;;;;;;;5017362;28;20095;-69
2023/04/19 08:41:37;;;;;;;3.58;1.75;;;;;;;;;;5013359;28;20033;-70
2023/04/19 08:44:02;;;;;;;7.88;2.03;;;;;;;;;;5017109;28;20835;-68
2023/04/19 08:46:28;;;;;;;8.32;2.03;;;;;;;;;;5018066;28;20025;-69
2023/04/19 08:48:54;;;;;;;7.15;2.58;;;;;;;;;;5019771;28;20081;-70
2023/04/19 08:51:19;;;;;;;20.85;2.25;;;;;;;;;;5019690;28;20524;-69
2023/04/19 08:53:44;;;;;;;4.65;1.95;;;;;;;;;;5015251;28;20018;-68
2023/04/19 08:56:10;;;;;;;10.27;2.35;;;;;;;;;;5010145;28;20026;-68
2023/04/19 08:58:36;;;;;;;11.70;2.40;;;;;;;;;;5011921;28;20018;-69
2023/04/19 09:01:02;;;;;;;8.43;2.33;;;;;;;;;;5021989;28;20465;-70
2023/04/19 09:03:28;;;;;;;3.50;1.92;;;;;;;;;;5017460;28;20087;-70
2023/04/19 09:05:53;;;;;;;5.40;2.42;;;;;;;;;;5020152;28;20053;-68
2023/04/19 09:08:21;;;;;;;3.72;1.83;;;;;;;;;;5017554;28;20024;-69
2023/04/19 09:11:00;;;;;;;11.52;2.25;;;;;;;;;;5019116;28;20551;-70
2023/04/19 09:13:26;;;;;;;4.35;1.80;;;;;;;;;;5019451;28;20041;-71
2023/04/19 09:15:59;;;;;;;6.75;2.17;;;;;;;;;;5026006;28;20025;-69
2023/04/19 09:18:25;;;;;;;6.75;2.42;;;;;;;;;;5015894;28;20041;-70
2023/04/19 09:20:56;;;;;;;4.90;2.03;;;;;;;;;;5019490;28;20705;-71
2023/04/19 09:23:21;;;;;;;4.97;2.03;;;;;;;;;;5024790;28;20044;-70
2023/04/19 09:25:52;;;;;;;10.50;2.20;;;;;;;;;;5021003;28;20051;-70
2023/04/19 09:28:17;;;;;;;14.38;2.33;;;;;;;;;;5014726;28;20493;-72
2023/04/19 09:30:42;;;;;;;7.18;2.88;;;;;;;;;;5018319;28;20045;-71
2023/04/19 09:33:07;;;;;;;4.68;1.95;;;;;;;;;;5013215;28;20032;-68
2023/04/19 09:35:42;;;;;;;4.32;2.00;;;;;;;;;;5016776;28;20030;-69
2023/04/19 09:38:08;;;;;;;5.45;2.30;;;;;;;;;;5024507;28;20579;-70
2023/04/19 09:40:34;;;;;;;7.05;2.55;;;;;;;;;;5013930;28;20021;-68
2023/04/19 09:42:59;;;;;;;9.13;2.40;;;;;;;;;;5011588;28;20029;-69
2023/04/19 09:45:25;;;;;;;5.80;2.20;;;;;;;;;;5018717;28;20013;-69
2023/04/19 09:47:59;;;;;;;5.10;2.03;;;;;;;;;;5010871;28;20109;-69
2023/04/19 09:50:24;;;;;;;7.03;2.70;;;;;;;;;;5007115;28;20028;-71
2023/04/19 09:52:54;;;;;;;5.53;1.90;;;;;;;;;;5017035;28;20033;-69
2023/04/19 09:55:20;;;;;;;7.10;2.45;;;;;;;;;;5017880;28;20149;-71
2023/04/19 09:57:45;;;;;;;7.13;2.13;;;;;;;;;;5007432;28;21572;-70
2023/04/19 10:00:12;;;;;;;9.95;2.30;;;;;;;;;;5013433;28;20041;-70
2023/04/19 10:02:39;;;;;;;5.70;2.38;;;;;;;;;;5006903;28;20037;-69
2023/04/19 10:05:05;;;;;;;8.38;2.70;;;;;;;;;;5015980;28;20021;-68
2023/04/19 10:07:31;;;;;;;7.13;2.22;;;;;;;;;;5013891;28;20828;-70
2023/04/19 10:09:57;;;;;;;3.13;1.80;;;;;;;;;;5018039;28;20079;-67
2023/04/19 10:12:23;;;;;;;12.90;2.45;;;;;;;;;;5014244;28;20025;-68
2023/04/19 10:14:49;;;;;;;3.70;2.10;;;;;;;;;;5010623;28;20048;-70
2023/04/19 10:17:15;;;;;;;7.50;2.00;;;;;;;;;;5018494;28;20059;-68
2023/04/19 10:19:40;;;;;;;5.72;2.50;;;;;;;;;;5012544;28;20029;-69
2023/04/19 10:22:07;;;;;;;5.55;2.13;;;;;;;;;;5017040;28;20037;-70
2023/04/19 10:24:32;;;;;;;7.85;2.60;;;;;;;;;;5016904;28;20060;-71
2023/04/19 10:27:03;;;;;;;5.07;1.90;;;;;;;;;;5018450;28;20081;-70
2023/04/19 10:30:09;;;;;;;4.63;1.98;;;;;;;;;;5013385;28;20014;-70
2023/04/19 10:32:38;;;;;;;6.75;1.90;;;;;;;;;;4956721;28;20030;-69
2023/04/19 10:35:07;;;;;;;6.80;2.03;;;;;;;;;;5021960;28;20041;-70
2023/04/19 10:37:32;;;;;;;7.40;2.15;;;;;;;;;;5027048;28;20168;-67
2023/04/19 10:39:57;;;;;;;6.00;2.63;;;;;;;;;;5020975;28;20512;-70
2023/04/19 10:42:23;;;;;;;5.95;2.20;;;;;;;;;;5016291;28;20436;-66
2023/04/19 10:45:20;;;;;;;5.15;2.08;;;;;;;;;;5018240;28;20021;-67
2023/04/19 10:47:45;;;;;;;4.93;1.90;;;;;;;;;;5003519;28;20148;-69
2023/04/19 10:50:11;;;;;;;9.05;2.10;;;;;;;;;;5044057;28;20105;-70
2023/04/19 10:52:36;;;;;;;4.18;1.73;;;;;;;;;;5031176;28;20021;-68
2023/04/19 10:55:03;;;;;;;8.55;3.33;;;;;;;;;;5027510;28;20025;-70
2023/04/19 10:57:48;;;;;;;10.18;1.92;;;;;;;;;;5025942;28;20573;-70
2023/04/19 11:00:17;;;;;;;6.40;1.98;;;;;;;;;;5025236;28;20033;-70
2023/04/19 11:02:43;;;;;;;5.70;2.20;;;;;;;;;;5039110;28;20036;-69
2023/04/19 11:05:13;;;;;;;4.43;2.05;;;;;;;;;;5030310;28;20021;-69
2023/04/19 11:07:38;;;;;;;8.45;2.20;;;;;;;;;;5025355;28;20068;-72
2023/04/19 11:10:04;;;;;;;5.13;2.20;;;;;;;;;;5018954;28;20605;-70
2023/04/19 11:12:29;;;;;;;12.88;2.70;;;;;;;;;;5025929;28;20316;-70
2023/04/19 11:14:56;;;;;;;3.95;2.00;;;;;;;;;;5030135;28;20067;-70
2023/04/19 11:17:25;;;;;;;5.40;2.30;;;;;;;;;;5030663;28;20383;-70
2023/04/19 11:19:51;;;;;;;3.88;2.05;;;;;;;;;;5014832;28;20109;-71
2023/04/19 11:22:16;;;;;;;6.68;2.00;;;;;;;;;;5040166;28;20104;-69
2023/04/19 11:24:46;;;;;;;9.98;2.75;;;;;;;;;;5031717;28;20017;-71
2023/04/19 11:27:11;;;;;;;5.18;2.22;;;;;;;;;;5022394;28;20341;-69
2023/04/19 11:29:36;;;;;;;7.10;1.98;;;;;;;;;;5028947;28;20024;-69
2023/04/19 11:32:02;;;;;;;8.40;2.83;;;;;;;;;;5014618;28;20025;-70
2023/04/19 11:34:28;;;;;;;11.60;2.53;;;;;;;;;;5027465;28;20017;-70
2023/04/19 11:36:53;;;;;;;11.07;2.22;;;;;;;;;;5009005;28;20435;-69
2023/04/19 11:39:18;;;;;;;6.72;2.13;;;;;;;;;;5022013;28;20037;-69
2023/04/19 11:41:46;;;;;;;12.32;2.47;;;;;;;;;;5012609;28;20083;-70
2023/04/19 11:44:20;;;;;;;14.70;2.80;;;;;;;;;;5016296;28;20410;-69
2023/04/19 11:47:12;;;;;;;5.80;1.95;;;;;;;;;;5015845;28;20121;-70
2023/04/19 11:49:37;;;;;;;4.38;1.98;;;;;;;;;;5020715;28;20613;-69
2023/04/19 11:52:04;;;;;;;7.53;2.78;;;;;;;;;;5017604;28;20037;-71
2023/04/19 11:54:30;;;;;;;7.95;2.33;;;;;;;;;;5015970;28;20026;-68
2023/04/19 11:56:56;;;;;;;5.38;2.42;;;;;;;;;;5013678;28;20026;-70
2023/04/19 11:59:21;;;;;;;6.70;2.35;;;;;;;;;;5011522;28;20028;-70
2023/04/19 12:01:46;;;;;;;5.47;2.53;;;;;;;;;;5011564;28;20022;-69
2023/04/19 12:04:12;;;;;;;15.95;2.75;;;;;;;;;;5013284;28;20021;-69
2023/04/19 12:06:37;;;;;;;9.13;2.50;;;;;;;;;;5017379;28;20107;-69
2023/04/19 12:09:06;;;;;;;5.03;2.78;;;;;;;;;;5016262;28;20045;-70
2023/04/19 12:11:42;;;;;;;7.07;2.40;;;;;;;;;;5013922;28;20512;-70
2023/04/19 12:14:08;;;;;;;7.38;2.67;;;;;;;;;;5012026;28;20105;-69
2023/04/19 12:16:33;;;;;;;8.23;3.10;;;;;;;;;;5013764;28;20110;-70
2023/04/19 12:19:09;;;;;;;6.85;2.38;;;;;;;;;;5012574;28;20053;-71
2023/04/19 12:21:34;;;;;;;5.70;2.33;;;;;;;;;;5018494;28;20068;-69
2023/04/19 12:24:00;;;;;;;5.97;2.38;;;;;;;;;;5017800;28;20017;-69
2023/04/19 12:26:27;;;;;;;6.93;2.55;;;;;;;;;;5018404;28;20025;-69
2023/04/19 12:28:52;;;;;;;23.15;4.57;;;;;;;;;;5010211;28;20033;-68
2023/04/19 12:31:19;;;;;;;8.15;2.70;;;;;;;;;;5011722;28;21067;-68
2023/04/19 12:33:44;;;;;;;17.13;3.28;;;;;;;;;;5014673;28;20045;-69
2023/04/19 12:36:10;;;;;;;7.88;2.33;;;;;;;;;;5017876;28;20037;-69
2023/04/19 12:38:36;;;;;;;6.05;2.47;;;;;;;;;;5014959;28;20022;-71
2023/04/19 12:41:02;;;;;;;6.05;2.25;;;;;;;;;;5013216;28;20026;-69
2023/04/19 12:43:29;;;;;;;5.63;1.95;;;;;;;;;;5017183;28;20099;-70
2023/04/19 12:45:54;;;;;;;6.03;2.42;;;;;;;;;;5018014;28;20021;-69
2023/04/19 12:48:20;;;;;;;7.80;2.38;;;;;;;;;;5017678;28;20518;-73
2023/04/19 12:50:45;;;;;;;13.15;3.10;;;;;;;;;;5010022;28;20062;-71
2023/04/19 12:53:10;;;;;;;10.20;2.53;;;;;;;;;;5015779;28;20419;-71
2023/04/19 12:55:36;;;;;;;7.85;3.33;;;;;;;;;;5013359;28;20537;-68
2023/04/19 12:58:01;;;;;;;5.90;2.53;;;;;;;;;;5011391;28;20076;-69
2023/04/19 13:00:26;;;;;;;7.00;2.70;;;;;;;;;;5011603;28;20040;-71
2023/04/19 13:02:52;;;;;;;5.70;2.72;;;;;;;;;;5018311;28;20029;-71
2023/04/19 13:05:17;;;;;;;8.32;2.40;;;;;;;;;;5015273;28;20028;-72
2023/04/19 13:07:42;;;;;;;7.22;2.80;;;;;;;;;;5018288;28;20083;-69
2023/04/19 13:10:08;;;;;;;10.10;2.47;;;;;;;;;;5014572;28;20021;-69
2023/04/19 13:12:35;;;;;;;7.75;2.60;;;;;;;;;;5011420;28;20546;-69
2023/04/19 13:15:00;;;;;;;5.40;2.28;;;;;;;;;;5014520;28;20025;-68
2023/04/19 13:17:25;;;;;;;5.60;2.25;;;;;;;;;;5017320;28;20031;-68
2023/04/19 13:19:50;;;;;;;5.53;2.35;;;;;;;;;;5013355;28;20099;-68
2023/04/19 13:22:16;;;;;;;8.30;2.30;;;;;;;;;;5011686;28;20104;-70
2023/04/19 13:24:41;;;;;;;8.20;2.28;;;;;;;;;;5014576;28;20524;-69
2023/04/19 13:27:06;;;;;;;7.45;2.17;;;;;;;;;;5018503;28;20025;-71
2023/04/19 13:29:31;;;;;;;8.63;2.60;;;;;;;;;;5013870;28;20083;-69
2023/04/19 13:31:57;;;;;;;9.30;2.22;;;;;;;;;;5020106;28;20107;-69
2023/04/19 13:34:22;;;;;;;8.25;2.25;;;;;;;;;;5017115;28;20036;-69
2023/04/19 13:36:47;;;;;;;7.03;2.08;;;;;;;;;;5019622;28;20041;-69
2023/04/19 13:39:12;;;;;;;12.00;2.40;;;;;;;;;;5014546;28;20140;-69
2023/04/19 13:41:38;;;;;;;8.45;2.30;;;;;;;;;;5007951;28;20025;-68
2023/04/19 13:44:03;;;;;;;9.45;1.98;;;;;;;;;;5017186;28;20029;-68
2023/04/19 13:46:28;;;;;;;3.80;1.98;;;;;;;;;;5019376;28;20525;-70
2023/04/19 13:48:53;;;;;;;11.77;2.13;;;;;;;;;;5016552;28;20021;-67
2023/04/19 13:51:19;;;;;;;5.60;2.33;;;;;;;;;;5016973;28;20395;-68
2023/04/19 13:53:44;;;;;;;9.07;2.63;;;;;;;;;;5017017;28;20900;-70
2023/04/19 13:56:09;;;;;;;7.13;2.13;;;;;;;;;;5018622;28;20025;-68
2023/04/19 13:58:35;;;;;;;6.38;2.63;;;;;;;;;;5015565;28;20021;-70
2023/04/19 14:01:00;;;;;;;7.95;2.40;;;;;;;;;;5008213;28;20096;-70
2023/04/19 14:03:26;;;;;;;9.43;2.40;;;;;;;;;;5010210;28;20486;-70
2023/04/19 14:05:51;;;;;;;9.18;2.75;;;;;;;;;;5017851;28;20107;-68
2023/04/19 14:08:16;;;;;;;9.15;2.13;;;;;;;;;;5018794;28;20029;-70
2023/04/19 14:10:41;;;;;;;4.18;2.00;;;;;;;;;;5010637;28;20026;-69
2023/04/19 14:13:06;;;;;;;9.10;2.35;;;;;;;;;;5010651;28;20037;-70
2023/04/19 14:15:32;;;;;;;4.80;1.70;;;;;;;;;;5023212;28;20031;-70
2023/04/19 14:17:57;;;;;;;7.90;2.20;;;;;;;;;;5015561;28;20076;-71
2023/04/19 14:20:22;;;;;;;8.02;2.45;;;;;;;;;;5020498;28;20283;-69
2023/04/19 14:22:48;;;;;;;7.85;1.95;;;;;;;;;;5009863;28;20022;-67
2023/04/19 14:25:17;;;;;;;9.02;2.40;;;;;;;;;;5018744;28;20022;-69
2023/04/19 14:27:42;;;;;;;;;;;;;;;;;;5018536;28;20137;-68
2023/04/19 14:30:08;;;;;;;7.90;2.10;;;;;;;;;;5023432;28;19963;-71
2023/04/19 14:32:33;;;;;;;9.95;2.45;;;;;;;;;;5008772;28;20277;-70